Scroll down
FLIGHT INFORMATION
PMDG Flight Operations

PFO812

At Arrival Gate

TKPK
 TAPA
DATE: 2020-08-12
GATE:  -
GATE DEPARTURE: 17:18
TAKEOFF: 17:22
DATE: 2020-08-12
GATE:  -
LANDING: 17:40
GATE ARRIVAL: 17:41
FLIGHT DATA
Crew: 
Speed: 
276 kts
Altitude: 
5,005 ft
Stage Length: 
54.1 nm
Block Time: 
0.4 hrs
Flight Time: 
0.3 hrs
Fuel Used: 
1,911 lb
Cleared Route: TKPK ANU EMALI RW07
TRACK DATA
50,000 ft 1,000 kts
AIRCRAFT INFO AND CUMULATIVE STATS
Aircraft Type: 
B738BDSF
Registration: 
SELCAL: 
MSN/LN: 
0 / 1
Total Flights: 
3
Total Block Time: 
1.2 hrs
Total Flight Time: 
0.9 hrs
Total Fuel Time: 
5,667 lb
DATALINK LOG | Newest first | Current as of: 2021-01-22 00:24:56
LABEL SEQUENCE CONTENT Dn/Up
QD423117:41 5.1▼ Dn
QC412617:40▼ Dn
QB230917:22▼ Dn
QA190517:18 7▼ Dn
2U1703TAPA 121900Z 09011KT 060V130 9999 BKN020 30/24 Q1014 NOSIG▲ Up
2U1703TKPK 121900Z 09013KT 9999 SCT018 31/26 Q1014▲ Up
2S1804TKPK TAPA▼ Dn
Q01401[LINK ACK]▲ Up
Q01401[LINK TEST]▼ Dn


AIRCRAFT HISTORY
FLIGHT DATE FLIGHT NO. ORIGIN DESTINATION CLEARED ROUTE BLOCK TIME FLIGHT TIME FUEL USED PILOT
2020-08-16PFO816TAPA TFFR TAPA PPR IFR12 RW120.4 hrs0.3 hrs1,954 lbKyle Weber
2020-08-12PFO812TKPK TAPA TKPK ANU EMALI RW070.4 hrs0.3 hrs1,911 lbKyle Weber
2020-08-09PFO809TNCM TKPK TNCM DUSUL RW070.4 hrs0.3 hrs1,802 lbKyle Weber